createdAt,value
2022-09-23T00:00:59.882Z,6.29
2022-09-23T00:03:28.816Z,6.30
2022-09-23T00:05:59.513Z,6.30
2022-09-23T00:08:26.141Z,6.22
2022-09-23T00:10:52.550Z,6.25
2022-09-23T00:13:19.072Z,6.23
2022-09-23T00:15:46.728Z,6.26
2022-09-23T00:18:13.394Z,6.19
2022-09-23T00:20:40.468Z,6.23
2022-09-23T00:23:06.926Z,6.18
2022-09-23T00:25:33.871Z,6.15
2022-09-23T00:28:00.382Z,6.14
2022-09-23T00:30:27.376Z,6.19
2022-09-23T00:32:54.058Z,6.09
2022-09-23T00:35:20.629Z,6.06
2022-09-23T00:37:47.080Z,6.01
2022-09-23T00:40:13.636Z,5.93
2022-09-23T00:42:52.562Z,5.91
2022-09-23T00:45:19.477Z,5.89
2022-09-23T00:47:55.196Z,5.80
2022-09-23T00:50:27.424Z,5.80
2022-09-23T00:52:56.795Z,5.81
2022-09-23T00:55:27.632Z,5.78
2022-09-23T00:57:57.033Z,5.85
2022-09-23T01:00:23.745Z,5.85
2022-09-23T01:02:51.277Z,5.84
2022-09-23T01:05:18.809Z,5.87
2022-09-23T01:07:46.046Z,5.90
2022-09-23T01:10:14.664Z,5.91
2022-09-23T01:13:11.023Z,5.87
2022-09-23T01:15:48.773Z,5.83
2022-09-23T01:18:43.543Z,5.86
2022-09-23T01:21:22.673Z,5.89
2022-09-23T01:24:03.131Z,5.93
2022-09-23T01:26:54.598Z,5.91
2022-09-23T01:29:29.903Z,5.92
2022-09-23T01:32:19.596Z,5.86
2022-09-23T01:34:51.020Z,5.89
2022-09-23T01:37:38.206Z,5.95
2022-09-23T01:40:15.503Z,6.00
2022-09-23T01:42:42.813Z,6.03
2022-09-23T01:45:20.426Z,6.05
2022-09-23T01:48:04.899Z,6.09
2022-09-23T01:50:54.174Z,6.07
2022-09-23T01:53:49.606Z,6.11
2022-09-23T01:56:31.327Z,6.09
2022-09-23T01:59:04.233Z,6.17
2022-09-23T02:01:39.341Z,6.18
2022-09-23T02:04:13.378Z,6.13
2022-09-23T02:06:43.382Z,6.07
2022-09-23T02:09:12.921Z,5.99
2022-09-23T02:11:42.988Z,5.80
2022-09-23T02:14:18.968Z,5.76
2022-09-23T02:16:48.692Z,5.76
2022-09-23T02:19:28.369Z,5.65
2022-09-23T02:22:06.944Z,5.58
2022-09-23T02:24:35.026Z,5.57
2022-09-23T02:27:19.719Z,5.55
2022-09-23T02:29:55.550Z,5.54
2022-09-23T02:32:54.449Z,5.55
2022-09-23T02:35:29.458Z,5.55
2022-09-23T02:38:35.040Z,5.49
2022-09-23T02:41:15.082Z,5.52
2022-09-23T02:43:59.750Z,5.50
2022-09-23T02:46:26.915Z,5.51
2022-09-23T02:48:56.818Z,5.57
2022-09-23T02:51:25.727Z,5.59
2022-09-23T02:53:57.117Z,5.61
2022-09-23T02:56:23.658Z,5.64
2022-09-23T02:58:52.337Z,5.59
2022-09-23T03:01:39.321Z,5.64
2022-09-23T03:04:17.236Z,5.68
2022-09-23T03:07:06.740Z,5.67
2022-09-23T03:09:57.361Z,5.67
2022-09-23T03:12:36.419Z,5.67
2022-09-23T03:15:12.358Z,5.70
2022-09-23T03:17:46.913Z,5.68
2022-09-23T03:20:23.466Z,5.66
2022-09-23T03:22:53.956Z,5.67
2022-09-23T03:25:23.897Z,5.70
2022-09-23T03:27:50.637Z,5.69
2022-09-23T03:30:18.199Z,5.68
2022-09-23T03:32:45.637Z,5.66
2022-09-23T03:35:13.098Z,5.69
2022-09-23T03:37:43.220Z,5.62
2022-09-23T03:40:25.525Z,5.58
2022-09-23T03:42:53.985Z,5.46
2022-09-23T03:45:23.748Z,5.43
2022-09-23T03:47:50.216Z,5.38
2022-09-23T03:50:17.312Z,5.28
2022-09-23T03:52:44.464Z,5.31
2022-09-23T03:55:11.274Z,5.28
2022-09-23T03:57:38.034Z,5.18
2022-09-23T04:00:06.850Z,5.17
2022-09-23T04:02:33.800Z,5.08
2022-09-23T04:05:01.116Z,5.06
2022-09-23T04:07:27.630Z,5.01
2022-09-23T04:09:54.296Z,4.95
2022-09-23T04:12:20.716Z,4.82
2022-09-23T04:14:47.248Z,4.80
2022-09-23T04:17:13.973Z,4.83
2022-09-23T04:19:40.868Z,4.86
2022-09-23T04:22:08.009Z,4.75
2022-09-23T04:24:34.568Z,4.76
2022-09-23T04:27:01.090Z,4.70
2022-09-23T04:29:27.641Z,4.58
2022-09-23T04:31:54.520Z,4.47
2022-09-23T04:34:21.596Z,4.57
2022-09-23T04:36:48.894Z,4.53
2022-09-23T04:39:16.070Z,4.61
2022-09-23T04:41:43.572Z,4.63
2022-09-23T04:44:14.585Z,4.62
2022-09-23T04:46:41.884Z,4.60
2022-09-23T04:49:08.651Z,4.72
2022-09-23T04:51:35.239Z,4.61
2022-09-23T04:54:01.782Z,4.75
2022-09-23T04:56:29.743Z,4.65
2022-09-23T04:59:01.720Z,4.65
2022-09-23T05:01:31.009Z,4.72
2022-09-23T05:04:03.169Z,4.83
2022-09-23T05:06:31.548Z,4.92
2022-09-23T05:08:58.781Z,4.96
2022-09-23T05:11:26.088Z,5.02
2022-09-23T05:13:54.010Z,5.02
2022-09-23T05:16:22.734Z,5.11
2022-09-23T05:18:50.172Z,5.07
2022-09-23T05:21:18.302Z,5.02
2022-09-23T05:23:49.288Z,5.05
2022-09-23T05:26:16.120Z,5.08
2022-09-23T05:28:42.701Z,5.06
2022-09-23T05:31:20.024Z,5.17
2022-09-23T05:33:49.965Z,5.14
2022-09-23T05:36:19.910Z,5.36
2022-09-23T05:38:46.441Z,5.45
2022-09-23T05:41:13.920Z,5.62
2022-09-23T05:43:41.124Z,5.79
2022-09-23T05:46:16.041Z,5.68
2022-09-23T05:48:43.210Z,5.74
2022-09-23T05:51:13.965Z,5.96
2022-09-23T05:53:41.002Z,6.08
2022-09-23T05:56:07.932Z,6.29
2022-09-23T05:58:34.688Z,6.47
2022-09-23T06:01:01.189Z,6.53
2022-09-23T06:03:27.651Z,6.60
2022-09-23T06:05:55.029Z,6.62
2022-09-23T06:08:23.560Z,6.54
2022-09-23T06:10:54.456Z,6.75
2022-09-23T06:13:21.364Z,7.00
2022-09-23T06:15:48.012Z,6.96
2022-09-23T06:18:14.571Z,7.28
2022-09-23T06:20:41.027Z,7.25
2022-09-23T06:23:10.607Z,7.29
2022-09-23T06:25:40.783Z,7.34
2022-09-23T06:28:12.228Z,7.50
2022-09-23T06:30:42.544Z,7.51
2022-09-23T06:33:10.095Z,7.63
2022-09-23T06:35:36.602Z,7.57
2022-09-23T06:38:04.995Z,7.77
2022-09-23T06:40:31.672Z,7.81
2022-09-23T06:42:59.857Z,8.07
2022-09-23T06:45:27.297Z,8.30
2022-09-23T06:47:58.698Z,8.16
2022-09-23T06:50:26.472Z,8.33
2022-09-23T06:52:56.697Z,8.51
2022-09-23T06:55:24.646Z,8.83
2022-09-23T06:57:51.208Z,8.99
2022-09-23T07:00:18.176Z,8.62
2022-09-23T07:02:44.891Z,8.87
2022-09-23T07:05:11.749Z,9.49
2022-09-23T07:07:43.606Z,9.32
2022-09-23T07:10:11.498Z,9.44
2022-09-23T07:12:38.044Z,9.57
2022-09-23T07:15:04.894Z,9.85
2022-09-23T07:17:31.393Z,10.44
2022-09-23T07:20:00.555Z,10.48
2022-09-23T07:22:30.423Z,10.61
2022-09-23T07:25:01.248Z,10.42
2022-09-23T07:27:27.834Z,11.95
2022-09-23T07:29:55.193Z,12.31
2022-09-23T07:32:23.085Z,12.20
2022-09-23T07:34:50.104Z,11.98
2022-09-23T07:37:17.950Z,12.66
2022-09-23T07:39:45.450Z,14.15
2022-09-23T07:42:13.439Z,14.55
2022-09-23T07:44:47.817Z,14.04
2022-09-23T07:47:14.655Z,14.07
2022-09-23T07:49:41.534Z,15.39
2022-09-23T07:52:08.021Z,15.76
2022-09-23T07:54:34.912Z,13.84
2022-09-23T07:57:01.591Z,14.58
2022-09-23T07:59:28.158Z,14.46
2022-09-23T08:01:56.812Z,14.82
2022-09-23T08:04:26.682Z,13.88
2022-09-23T08:06:58.894Z,15.78
2022-09-23T08:09:28.474Z,19.03
2022-09-23T08:11:55.410Z,21.64
2022-09-23T08:14:22.499Z,22.49
2022-09-23T08:16:49.493Z,22.43
2022-09-23T08:19:16.721Z,23.33
2022-09-23T08:21:43.592Z,24.26
2022-09-23T08:24:14.666Z,23.18
2022-09-23T08:26:41.208Z,22.45
2022-09-23T08:29:10.163Z,20.67
2022-09-23T08:31:36.837Z,19.44
2022-09-23T08:34:04.843Z,17.54
2022-09-23T08:36:31.950Z,15.88
2022-09-23T08:38:58.409Z,15.45
2022-09-23T08:41:58.824Z,14.83
2022-09-23T08:44:44.400Z,14.14
2022-09-23T08:47:13.637Z,13.71
2022-09-23T08:49:45.743Z,13.96
2022-09-23T08:52:18.476Z,14.17
2022-09-23T08:54:44.930Z,14.67
2022-09-23T08:57:24.495Z,14.63
2022-09-23T08:59:51.198Z,15.19
2022-09-23T09:02:19.469Z,15.72
2022-09-23T09:04:49.909Z,15.98
2022-09-23T09:07:37.633Z,15.81
2022-09-23T09:10:20.591Z,15.52
2022-09-23T09:12:50.392Z,14.99
2022-09-23T09:15:24.852Z,14.39
2022-09-23T09:18:21.408Z,14.09
2022-09-23T09:21:00.753Z,13.75
2022-09-23T09:23:40.936Z,13.27
2022-09-23T09:26:11.744Z,13.45
2022-09-23T09:28:42.082Z,13.99
2022-09-23T09:31:45.109Z,13.90
2022-09-23T09:34:40.719Z,13.65
2022-09-23T09:37:13.716Z,13.65
2022-09-23T09:39:40.808Z,14.04
2022-09-23T09:42:07.562Z,14.36
2022-09-23T09:44:48.400Z,14.63
2022-09-23T09:47:28.639Z,15.06
2022-09-23T09:50:11.349Z,14.95
2022-09-23T09:52:44.071Z,14.75
2022-09-23T09:55:13.666Z,14.49
2022-09-23T09:58:06.192Z,14.51
2022-09-23T10:00:43.005Z,14.36
2022-09-23T10:03:15.140Z,14.19
2022-09-23T10:05:44.973Z,14.43
2022-09-23T10:08:27.347Z,14.41
2022-09-23T10:11:17.185Z,14.15
2022-09-23T10:14:12.850Z,14.29
2022-09-23T10:16:41.581Z,14.46
2022-09-23T10:19:22.734Z,14.61
2022-09-23T10:21:59.319Z,14.64
2022-09-23T10:24:30.101Z,14.77
2022-09-23T10:27:08.893Z,14.92
2022-09-23T10:29:45.869Z,14.82
2022-09-23T10:32:31.171Z,14.99
2022-09-23T10:35:04.637Z,14.76
2022-09-23T10:37:38.886Z,14.39
2022-09-23T10:40:34.581Z,14.02
2022-09-23T10:43:24.364Z,14.22
2022-09-23T10:46:09.537Z,14.23
2022-09-23T10:49:12.073Z,14.01
2022-09-23T10:51:57.128Z,14.00
2022-09-23T10:54:56.396Z,14.25
2022-09-23T10:57:38.159Z,14.09
2022-09-23T11:00:23.683Z,13.92
2022-09-23T11:03:21.353Z,13.79
2022-09-23T11:06:08.469Z,14.06
2022-09-23T11:08:40.986Z,14.25
2022-09-23T11:11:39.517Z,14.47
2022-09-23T11:14:22.956Z,14.51
2022-09-23T11:16:58.243Z,14.43
2022-09-23T11:19:56.630Z,14.38
2022-09-23T11:22:54.234Z,14.05
2022-09-23T11:25:43.533Z,13.86
2022-09-23T11:28:52.537Z,13.94
2022-09-23T11:31:37.608Z,14.11
2022-09-23T11:34:13.355Z,14.18
2022-09-23T11:36:43.714Z,14.45
2022-09-23T11:39:19.468Z,14.69
2022-09-23T11:41:46.646Z,14.97
2022-09-23T11:44:23.134Z,15.02
2022-09-23T11:47:19.573Z,15.11
2022-09-23T11:49:58.134Z,15.18
2022-09-23T11:52:24.666Z,15.32
2022-09-23T11:54:52.189Z,15.26
2022-09-23T11:57:43.560Z,15.31
2022-09-23T12:00:19.040Z,15.10
2022-09-23T12:03:05.721Z,14.91
2022-09-23T12:05:40.235Z,14.74
2022-09-23T12:08:15.753Z,14.71
2022-09-23T12:10:54.305Z,14.46
2022-09-23T12:13:42.062Z,14.34
2022-09-23T12:16:25.738Z,14.49
2022-09-23T12:19:18.333Z,14.83
2022-09-23T12:22:24.157Z,14.76
2022-09-23T12:25:14.283Z,14.85
2022-09-23T12:27:45.798Z,15.00
2022-09-23T12:30:20.033Z,15.13
2022-09-23T12:32:46.854Z,15.45
2022-09-23T12:35:35.752Z,15.20
2022-09-23T12:38:05.181Z,15.39
2022-09-23T12:40:34.983Z,15.25
2022-09-23T12:43:04.974Z,15.45
2022-09-23T12:45:35.003Z,15.30
2022-09-23T12:48:05.042Z,14.86
2022-09-23T12:51:03.863Z,14.85
2022-09-23T12:53:33.643Z,14.92
2022-09-23T12:56:02.256Z,14.99
2022-09-23T12:58:57.593Z,14.79
2022-09-23T13:01:25.943Z,14.64
2022-09-23T13:04:13.287Z,14.60
2022-09-23T13:06:42.104Z,14.53
2022-09-23T13:09:15.017Z,14.46
2022-09-23T13:11:43.608Z,14.36
2022-09-23T13:14:13.360Z,14.33
2022-09-23T13:16:43.951Z,14.33
2022-09-23T13:19:35.385Z,14.12
2022-09-23T13:22:09.096Z,14.17
2022-09-23T13:24:47.637Z,14.04
2022-09-23T13:27:33.584Z,13.93
2022-09-23T13:30:04.848Z,13.90
2022-09-23T13:32:35.174Z,13.90
2022-09-23T13:35:24.375Z,14.02
2022-09-23T13:37:50.871Z,13.83
2022-09-23T13:40:19.558Z,13.92
2022-09-23T13:42:59.877Z,14.02
2022-09-23T13:45:28.012Z,13.97
2022-09-23T13:48:00.515Z,13.96
2022-09-23T13:50:29.519Z,13.72
2022-09-23T13:53:01.455Z,13.85
2022-09-23T13:55:37.365Z,14.00
2022-09-23T13:58:20.521Z,14.41
2022-09-23T14:00:48.031Z,14.42
2022-09-23T14:03:45.545Z,14.20
2022-09-23T14:06:17.144Z,13.91
2022-09-23T14:08:50.394Z,13.70
2022-09-23T14:11:18.619Z,13.63
2022-09-23T14:13:47.085Z,13.52
2022-09-23T14:16:17.302Z,13.48
2022-09-23T14:18:49.629Z,13.46
2022-09-23T14:21:36.396Z,13.56
2022-09-23T14:24:30.979Z,13.80
2022-09-23T14:27:06.386Z,13.99
2022-09-23T14:29:38.089Z,14.38
2022-09-23T14:32:21.339Z,14.36
2022-09-23T14:35:00.936Z,14.57
2022-09-23T14:37:53.556Z,14.80
2022-09-23T14:40:27.467Z,15.12
2022-09-23T14:43:27.963Z,15.28
2022-09-23T14:45:56.567Z,15.25
2022-09-23T14:48:28.729Z,15.39
2022-09-23T14:50:58.122Z,15.40
2022-09-23T14:53:41.397Z,15.36
2022-09-23T14:56:11.480Z,15.49
2022-09-23T14:58:57.811Z,15.14
2022-09-23T15:01:45.811Z,15.19
2022-09-23T15:04:17.006Z,14.76
2022-09-23T15:06:48.396Z,14.52
2022-09-23T15:09:26.896Z,14.42
2022-09-23T15:11:58.665Z,14.35
2022-09-23T15:14:38.189Z,14.27
2022-09-23T15:17:11.559Z,14.23
2022-09-23T15:19:38.178Z,14.10
2022-09-23T15:22:07.601Z,14.00
2022-09-23T15:24:36.618Z,13.84
2022-09-23T15:27:10.795Z,13.69
2022-09-23T15:29:37.408Z,13.68
2022-09-23T15:32:06.571Z,13.62
2022-09-23T15:34:33.291Z,13.60
2022-09-23T15:36:59.751Z,13.45
2022-09-23T15:39:35.496Z,13.37
2022-09-23T15:42:03.001Z,13.24
2022-09-23T15:44:29.937Z,13.16
2022-09-23T15:46:59.169Z,13.08
2022-09-23T15:49:29.871Z,13.08
2022-09-23T15:51:59.307Z,13.01
2022-09-23T15:54:25.747Z,12.93
2022-09-23T15:56:52.355Z,12.91
2022-09-23T15:59:19.141Z,12.81
2022-09-23T16:01:45.983Z,12.79
2022-09-23T16:04:15.620Z,12.67
2022-09-23T16:06:44.480Z,12.38
2022-09-23T16:09:13.355Z,12.33
2022-09-23T16:11:44.391Z,12.30
2022-09-23T16:14:13.884Z,12.29
2022-09-23T16:16:42.422Z,12.24
2022-09-23T16:19:09.032Z,12.17
2022-09-23T16:21:35.523Z,12.09
2022-09-23T16:24:03.531Z,11.90
2022-09-23T16:26:31.972Z,11.91
2022-09-23T16:28:59.546Z,11.88
2022-09-23T16:31:29.537Z,11.76
2022-09-23T16:33:56.586Z,11.79
2022-09-23T16:36:31.815Z,11.75
2022-09-23T16:38:59.962Z,11.68
2022-09-23T16:41:33.862Z,11.52
2022-09-23T16:44:02.805Z,11.35
2022-09-23T16:46:29.745Z,11.33
2022-09-23T16:48:57.582Z,11.16
2022-09-23T16:51:33.286Z,11.07
2022-09-23T16:54:00.041Z,10.94
2022-09-23T16:56:29.055Z,10.87
2022-09-23T16:58:56.143Z,10.73
2022-09-23T17:01:46.710Z,10.64
2022-09-23T17:04:14.518Z,10.60
2022-09-23T17:06:50.067Z,10.56
2022-09-23T17:09:18.816Z,10.46
2022-09-23T17:11:47.758Z,10.39
2022-09-23T17:14:15.605Z,10.35
2022-09-23T17:16:42.265Z,10.30
2022-09-23T17:19:11.514Z,10.29
2022-09-23T17:21:38.037Z,10.31
2022-09-23T17:24:05.029Z,10.30
2022-09-23T17:26:31.569Z,10.29
2022-09-23T17:28:59.372Z,10.27
2022-09-23T17:31:26.105Z,10.26
2022-09-23T17:33:53.050Z,10.28
2022-09-23T17:36:20.133Z,10.33
2022-09-23T17:38:48.188Z,10.32
2022-09-23T17:41:15.325Z,10.35
2022-09-23T17:43:41.937Z,10.31
2022-09-23T17:46:10.682Z,10.36
2022-09-23T17:48:39.365Z,10.31
2022-09-23T17:51:08.342Z,10.34
2022-09-23T17:53:37.209Z,10.35
2022-09-23T17:56:16.832Z,10.32
2022-09-23T17:58:44.121Z,10.37
2022-09-23T18:01:19.543Z,10.36
2022-09-23T18:03:47.413Z,10.39
2022-09-23T18:06:17.580Z,10.40
2022-09-23T18:08:45.659Z,10.36
2022-09-23T18:11:19.801Z,10.37
2022-09-23T18:13:54.126Z,10.38
2022-09-23T18:16:22.487Z,10.35
2022-09-23T18:18:53.183Z,10.31
2022-09-23T18:21:20.827Z,10.30
2022-09-23T18:23:47.748Z,10.31
2022-09-23T18:26:19.630Z,10.28
2022-09-23T18:28:46.287Z,10.27
2022-09-23T18:31:13.435Z,10.32
2022-09-23T18:33:40.072Z,10.28
2022-09-23T18:36:07.860Z,10.28
2022-09-23T18:38:34.721Z,10.29
2022-09-23T18:41:01.646Z,10.30
2022-09-23T18:43:39.393Z,10.37
2022-09-23T18:46:11.732Z,10.38
2022-09-23T18:48:56.876Z,10.26
2022-09-23T18:51:25.747Z,10.31
2022-09-23T18:53:57.472Z,10.35
2022-09-23T18:56:29.712Z,10.39
2022-09-23T18:58:56.298Z,10.41
2022-09-23T19:01:23.754Z,10.43
2022-09-23T19:03:57.032Z,10.42
2022-09-23T19:06:24.457Z,10.42
2022-09-23T19:08:52.489Z,10.45
2022-09-23T19:11:19.552Z,10.54
2022-09-23T19:13:46.317Z,10.50
2022-09-23T19:16:14.983Z,10.51
2022-09-23T19:18:43.505Z,10.52
2022-09-23T19:21:12.727Z,10.49
2022-09-23T19:23:40.037Z,10.53
2022-09-23T19:26:11.233Z,10.61
2022-09-23T19:28:37.921Z,10.53
2022-09-23T19:31:11.897Z,10.54
2022-09-23T19:33:41.138Z,10.46
2022-09-23T19:36:10.691Z,10.49
2022-09-23T19:38:38.336Z,10.50
2022-09-23T19:41:07.851Z,10.49
2022-09-23T19:43:37.842Z,10.46
2022-09-23T19:46:05.653Z,10.50
2022-09-23T19:48:32.371Z,10.49
2022-09-23T19:50:59.020Z,10.51
2022-09-23T19:53:28.152Z,10.44
2022-09-23T19:55:56.075Z,10.41
2022-09-23T19:58:23.177Z,10.43
2022-09-23T20:00:49.660Z,10.41
2022-09-23T20:03:17.632Z,10.43
2022-09-23T20:05:44.060Z,10.41
2022-09-23T20:08:10.492Z,10.39
2022-09-23T20:10:39.378Z,10.38
2022-09-23T20:13:05.830Z,10.34
2022-09-23T20:15:32.364Z,10.29
2022-09-23T20:17:58.765Z,10.27
2022-09-23T20:20:25.159Z,10.19
2022-09-23T20:22:54.282Z,10.10
2022-09-23T20:25:20.938Z,10.06
2022-09-23T20:27:53.320Z,10.02
2022-09-23T20:30:20.700Z,9.87
2022-09-23T20:32:50.768Z,9.78
2022-09-23T20:35:17.180Z,9.71
2022-09-23T20:37:44.637Z,9.62
2022-09-23T20:40:11.147Z,9.51
2022-09-23T20:42:37.907Z,9.44
2022-09-23T20:45:06.815Z,9.39
2022-09-23T20:47:33.346Z,9.28
2022-09-23T20:49:59.847Z,9.21
2022-09-23T20:52:26.370Z,9.14
2022-09-23T20:54:52.940Z,9.05
2022-09-23T20:57:20.295Z,8.92
2022-09-23T20:59:46.848Z,8.83
2022-09-23T21:02:13.316Z,8.76
2022-09-23T21:04:39.936Z,8.65
2022-09-23T21:07:07.210Z,8.64
2022-09-23T21:09:33.740Z,8.54
2022-09-23T21:12:00.154Z,8.51
2022-09-23T21:14:26.742Z,8.51
2022-09-23T21:16:55.230Z,8.39
2022-09-23T21:19:21.714Z,8.35
2022-09-23T21:21:48.243Z,8.28
2022-09-23T21:27:04.374Z,8.24
2022-09-23T21:29:30.817Z,8.18
2022-09-23T21:31:57.496Z,8.08
2022-09-23T21:34:28.173Z,8.06
2022-09-23T21:36:56.624Z,7.97
2022-09-23T21:39:23.336Z,7.83
2022-09-23T21:41:51.229Z,7.79
2022-09-23T21:44:17.856Z,7.68
2022-09-23T21:46:44.355Z,7.70
2022-09-23T21:49:11.238Z,7.63
2022-09-23T21:51:41.036Z,7.66
2022-09-23T21:54:11.969Z,7.74
2022-09-23T21:56:38.429Z,7.64
2022-09-23T21:59:05.696Z,7.63
2022-09-23T22:01:37.622Z,7.59
2022-09-23T22:04:10.151Z,7.51
2022-09-23T22:06:38.276Z,7.53
2022-09-23T22:09:09.987Z,7.51
2022-09-23T22:11:56.819Z,7.47
2022-09-23T22:14:27.503Z,7.41
2022-09-23T22:16:59.124Z,7.36
2022-09-23T22:19:27.908Z,7.33
2022-09-23T22:21:56.166Z,7.29
2022-09-23T22:24:22.764Z,7.22
2022-09-23T22:26:49.231Z,7.22
2022-09-23T22:29:34.847Z,7.15
2022-09-23T22:32:21.425Z,7.10
2022-09-23T22:34:52.541Z,7.09
2022-09-23T22:37:21.337Z,7.06
2022-09-23T22:39:47.763Z,6.99
2022-09-23T22:42:14.347Z,7.06
2022-09-23T22:44:40.891Z,7.08
2022-09-23T22:47:08.017Z,6.98
2022-09-23T22:49:34.917Z,6.99
2022-09-23T22:52:03.106Z,6.96
2022-09-23T22:54:33.749Z,6.91
2022-09-23T22:57:05.114Z,6.94
2022-09-23T22:59:31.804Z,6.89
2022-09-23T23:01:59.729Z,6.85
2022-09-23T23:04:26.976Z,6.85
2022-09-23T23:06:53.951Z,6.81
2022-09-23T23:09:20.425Z,6.77
2022-09-23T23:11:47.264Z,6.78
2022-09-23T23:14:16.140Z,6.75
2022-09-23T23:16:43.265Z,6.84
2022-09-23T23:19:13.489Z,7.04
2022-09-23T23:21:43.382Z,6.92
2022-09-23T23:24:17.838Z,6.86
2022-09-23T23:26:45.117Z,6.86
2022-09-23T23:29:13.147Z,6.75
2022-09-23T23:31:39.950Z,6.65
2022-09-23T23:34:08.360Z,6.62
2022-09-23T23:36:34.899Z,6.55
2022-09-23T23:39:01.462Z,6.54
2022-09-23T23:41:28.331Z,6.46
2022-09-23T23:43:56.682Z,6.40
2022-09-23T23:46:25.432Z,6.45
2022-09-23T23:48:52.367Z,6.45
2022-09-23T23:51:18.937Z,6.41
2022-09-23T23:53:45.457Z,6.39
2022-09-23T23:56:14.661Z,6.38
2022-09-23T23:58:41.363Z,6.27
